Time;durP1;ratioP1;P1;durP2;ratioP2;P2;SDS_P1;SDS_P2;PMS_P1;PMS_P2;Temp;Humidity;BMP_temperature;BMP_pressure;BME280_temperature;BME280_humidity;BME280_pressure;Samples;Min_cycle;Max_cycle;Signal;HPM_P1;HPM_P2
2022/05/14 00:01:31;;;;;;;6.78;6.13;;;19.90;99.90;;;;;;5030261;28;20026;-67
2022/05/14 00:03:58;;;;;;;6.45;5.53;;;20.00;99.90;;;;;;5017510;28;20057;-67
2022/05/14 00:06:28;;;;;;;6.03;5.43;;;20.00;99.90;;;;;;5025869;28;20048;-67
2022/05/14 00:08:55;;;;;;;6.47;5.30;;;20.00;99.90;;;;;;5026138;28;20390;-67
2022/05/14 00:14:09;;;;;;;6.10;5.07;;;20.10;99.90;;;;;;5029802;28;20041;-67
2022/05/14 00:16:38;;;;;;;7.18;5.70;;;20.30;99.90;;;;;;5021307;28;20482;-67
2022/05/14 00:19:07;;;;;;;5.90;4.90;;;20.40;99.90;;;;;;5029601;28;20486;-68
2022/05/14 00:21:35;;;;;;;5.57;4.90;;;20.50;99.90;;;;;;5030328;28;20029;-67
2022/05/14 00:24:06;;;;;;;5.93;4.35;;;20.60;99.90;;;;;;5027234;28;20128;-67
2022/05/14 00:26:38;;;;;;;4.57;4.18;;;20.80;99.90;;;;;;5034006;28;20067;-67
2022/05/14 00:29:07;;;;;;;4.68;3.33;;;20.90;99.90;;;;;;5034745;28;20381;-68
2022/05/14 00:31:34;;;;;;;4.50;3.67;;;21.10;99.90;;;;;;5023813;28;20057;-68
2022/05/14 00:34:02;;;;;;;6.38;4.10;;;21.40;99.90;;;;;;5029764;28;20037;-68
2022/05/14 00:36:29;;;;;;;3.65;3.22;;;21.60;99.90;;;;;;5023393;28;20021;-68
2022/05/14 00:38:56;;;;;;;4.47;3.28;;;21.80;99.90;;;;;;5030310;28;20021;-68
2022/05/14 00:41:24;;;;;;;3.90;2.88;;;21.80;99.90;;;;;;5020010;28;20038;-68
2022/05/14 00:43:57;;;;;;;4.28;2.58;;;21.70;99.90;;;;;;5019481;28;20457;-68
2022/05/14 00:46:46;;;;;;;3.63;2.78;;;21.60;99.90;;;;;;5020762;28;20033;-68
2022/05/14 00:49:15;;;;;;;3.25;2.88;;;21.70;99.90;;;;;;5026794;28;20501;-67
2022/05/14 00:51:45;;;;;;;2.95;1.92;;;21.80;99.90;;;;;;5024895;28;20084;-69
2022/05/14 00:54:17;;;;;;;3.80;2.03;;;21.90;99.90;;;;;;5023742;28;20112;-68
2022/05/14 00:56:52;;;;;;;4.13;2.30;;;22.00;99.90;;;;;;5021392;28;20052;-69
2022/05/14 00:59:23;;;;;;;2.70;1.88;;;22.10;99.90;;;;;;5019543;28;20436;-69
2022/05/14 01:01:51;;;;;;;2.78;1.40;;;22.20;99.90;;;;;;5019665;28;20025;-69
2022/05/14 01:04:20;;;;;;;3.25;1.90;;;22.20;99.90;;;;;;5020143;28;20026;-69
2022/05/14 01:07:01;;;;;;;2.80;1.92;;;22.20;99.90;;;;;;5025752;28;20025;-70
2022/05/14 01:09:28;;;;;;;2.67;1.55;;;22.30;99.90;;;;;;5019517;28;20390;-68
2022/05/14 01:11:56;;;;;;;3.15;2.13;;;22.30;99.90;;;;;;5017350;28;20030;-69
2022/05/14 01:14:24;;;;;;;3.58;1.92;;;22.40;99.90;;;;;;5020135;28;20044;-69
2022/05/14 01:16:51;;;;;;;3.88;1.80;;;22.60;99.90;;;;;;5026183;28;20105;-69
2022/05/14 01:19:19;;;;;;;5.70;1.65;;;22.40;99.90;;;;;;5020648;28;20018;-69
2022/05/14 01:22:27;;;;;;;5.43;2.10;;;22.50;99.90;;;;;;5017958;28;20437;-68
2022/05/14 01:28:07;;;;;;;2.72;1.90;;;22.60;99.90;;;;;;5015287;28;20172;-69
2022/05/14 01:30:35;;;;;;;4.28;1.67;;;22.70;99.90;;;;;;5026214;28;20029;-69
2022/05/14 01:33:05;;;;;;;3.28;1.88;;;22.80;99.90;;;;;;5029708;28;20481;-69
2022/05/14 01:35:35;;;;;;;2.63;2.08;;;22.80;99.90;;;;;;5032527;28;20038;-68
2022/05/14 01:38:03;;;;;;;3.65;1.67;;;23.00;99.90;;;;;;5034935;28;20021;-68
2022/05/14 01:40:31;;;;;;;4.55;2.53;;;23.30;99.90;;;;;;5024136;28;20044;-68
2022/05/14 01:42:59;;;;;;;2.25;1.63;;;23.50;99.90;;;;;;5033384;28;20575;-68
2022/05/14 01:45:26;;;;;;;3.58;2.03;;;23.60;99.90;;;;;;5025098;28;20454;-68
2022/05/14 01:47:54;;;;;;;1.70;1.40;;;23.60;99.90;;;;;;5033650;28;20053;-67
2022/05/14 01:50:22;;;;;;;3.35;1.60;;;23.70;99.90;;;;;;5031649;28;20052;-68
2022/05/14 01:52:49;;;;;;;3.72;1.50;;;24.10;99.90;;;;;;5034191;28;20053;-68
2022/05/14 01:55:16;;;;;;;2.92;1.75;;;24.10;99.90;;;;;;5024559;28;20037;-68
2022/05/14 01:57:44;;;;;;;4.50;1.70;;;24.20;99.90;;;;;;5014678;28;20080;-68
2022/05/14 02:00:14;;;;;;;3.53;2.00;;;24.30;99.90;;;;;;5016615;28;20377;-68
2022/05/14 02:02:42;;;;;;;5.72;1.95;;;24.40;99.90;;;;;;5028722;28;20080;-68
2022/05/14 02:05:09;;;;;;;4.95;1.90;;;24.50;99.90;;;;;;5022956;28;20018;-67
2022/05/14 02:07:36;;;;;;;5.05;1.90;;;24.60;99.90;;;;;;5027436;28;20501;-67
2022/05/14 02:10:04;;;;;;;5.95;2.67;;;24.70;99.90;;;;;;5022459;28;20112;-67
2022/05/14 02:12:32;;;;;;;6.00;2.45;;;24.60;99.90;;;;;;5027652;28;20033;-66
2022/05/14 02:14:59;;;;;;;8.10;2.65;;;24.60;99.90;;;;;;5022810;28;20080;-66
2022/05/14 02:17:27;;;;;;;4.07;1.92;;;24.70;99.90;;;;;;5017000;28;20022;-67
2022/05/14 02:19:54;;;;;;;5.70;2.00;;;24.90;99.90;;;;;;5022921;28;20079;-67
2022/05/14 02:22:21;;;;;;;8.00;3.13;;;25.30;99.90;;;;;;5019364;28;20038;-67
2022/05/14 02:24:48;;;;;;;8.02;2.85;;;25.10;99.90;;;;;;5024231;28;20026;-67
2022/05/14 02:27:16;;;;;;;8.40;2.22;;;24.70;99.90;;;;;;5026664;28;20026;-67
2022/05/14 02:29:53;;;;;;;6.22;2.10;;;25.40;99.90;;;;;;5025422;28;20060;-67
2022/05/14 02:32:23;;;;;;;8.55;2.35;;;26.10;99.90;;;;;;5033620;28;20466;-67
2022/05/14 02:34:52;;;;;;;6.75;2.53;;;25.70;99.90;;;;;;5019337;28;20048;-68
2022/05/14 02:37:23;;;;;;;8.27;2.63;;;25.80;99.90;;;;;;5016094;28;20032;-69
2022/05/14 02:39:51;;;;;;;7.28;2.97;;;25.70;99.90;;;;;;5026105;28;20398;-68
2022/05/14 02:42:19;;;;;;;6.28;2.72;;;25.30;99.90;;;;;;5031244;28;20116;-68
2022/05/14 02:44:46;;;;;;;11.50;3.05;;;25.20;99.90;;;;;;5018143;28;20072;-69
2022/05/14 02:47:13;;;;;;;6.70;2.47;;;25.50;99.90;;;;;;5029721;28;20132;-68
2022/05/14 02:49:41;;;;;;;6.75;2.50;;;25.50;99.90;;;;;;5028618;28;20098;-69
2022/05/14 02:52:09;;;;;;;8.05;2.70;;;26.00;99.90;;;;;;5018418;28;20104;-68
2022/05/14 02:54:37;;;;;;;7.18;2.83;;;25.60;99.90;;;;;;5029285;28;20367;-69
2022/05/14 02:57:05;;;;;;;9.00;3.45;;;25.70;99.90;;;;;;5013546;28;20116;-69
2022/05/14 02:59:32;;;;;;;11.65;3.50;;;25.90;99.90;;;;;;5023405;28;20025;-69
2022/05/14 03:02:00;;;;;;;11.52;3.58;;;26.00;99.90;;;;;;5032604;28;20017;-68
2022/05/14 03:04:36;;;;;;;11.68;3.88;;;25.30;99.90;;;;;;5019616;28;20045;-69
2022/05/14 03:07:07;;;;;;;7.28;3.70;;;25.00;99.90;;;;;;5018656;28;20552;-69
2022/05/14 03:09:36;;;;;;;8.65;3.20;;;25.00;99.90;;;;;;5023523;28;20034;-69
2022/05/14 03:12:05;;;;;;;8.95;3.30;;;24.70;99.90;;;;;;5027020;28;20087;-67
2022/05/14 03:14:32;;;;;;;7.40;2.60;;;25.20;99.90;;;;;;5025233;28;20627;-67
2022/05/14 03:16:59;;;;;;;6.65;2.70;;;24.80;99.90;;;;;;5020363;28;20495;-67
2022/05/14 03:19:27;;;;;;;11.10;2.90;;;25.10;99.90;;;;;;5025642;28;20505;-68
2022/05/14 03:21:54;;;;;;;8.80;2.90;;;25.40;99.90;;;;;;5031764;28;20041;-68
2022/05/14 03:24:21;;;;;;;7.65;2.85;;;25.30;99.90;;;;;;5021293;28;20037;-68
2022/05/14 03:26:49;;;;;;;9.05;3.05;;;25.40;99.90;;;;;;5013717;28;20018;-68
2022/05/14 03:29:16;;;;;;;11.85;3.65;;;25.50;99.90;;;;;;5017839;28;20072;-68
2022/05/14 03:31:43;;;;;;;6.53;3.13;;;25.70;99.90;;;;;;5031424;28;20026;-67
2022/05/14 03:34:11;;;;;;;10.15;3.65;;;25.60;99.90;;;;;;5017528;28;20419;-67
2022/05/14 03:36:40;;;;;;;8.30;3.65;;;25.30;99.90;;;;;;5021344;28;20022;-67
2022/05/14 03:39:08;;;;;;;8.57;3.95;;;25.10;99.90;;;;;;5018663;28;20485;-67
2022/05/14 03:41:36;;;;;;;9.25;3.95;;;25.00;99.90;;;;;;5027034;28;20091;-67
2022/05/14 03:44:04;;;;;;;9.30;4.43;;;25.10;99.90;;;;;;5019117;28;20042;-67
2022/05/14 03:46:31;;;;;;;11.38;4.80;;;25.20;99.90;;;;;;5016218;28;20144;-67
2022/05/14 03:48:58;;;;;;;7.50;4.70;;;25.20;99.90;;;;;;5026706;28;20482;-67
2022/05/14 03:51:26;;;;;;;8.80;5.00;;;25.40;99.90;;;;;;5024405;28;20425;-67
2022/05/14 03:53:54;;;;;;;8.77;5.60;;;25.30;99.90;;;;;;5020904;28;20026;-67
2022/05/14 03:56:21;;;;;;;12.15;6.22;;;24.70;99.90;;;;;;5034619;28;20022;-67
2022/05/14 03:58:48;;;;;;;13.77;6.53;;;24.50;99.90;;;;;;5036603;28;20073;-67
2022/05/14 04:01:16;;;;;;;14.15;7.20;;;24.10;99.90;;;;;;5023830;28;20032;-67
2022/05/14 04:03:43;;;;;;;14.32;7.53;;;24.10;99.90;;;;;;5019785;28;20044;-67
2022/05/14 04:06:11;;;;;;;16.52;8.10;;;23.70;99.90;;;;;;5022135;28;20029;-67
2022/05/14 04:08:40;;;;;;;14.40;7.25;;;23.70;99.90;;;;;;5027632;28;20430;-67
2022/05/14 04:11:08;;;;;;;17.17;9.57;;;23.60;99.90;;;;;;5017147;28;20034;-67
2022/05/14 04:13:35;;;;;;;14.77;8.60;;;23.30;99.90;;;;;;5033778;28;20080;-67
2022/05/14 04:16:03;;;;;;;16.15;7.75;;;23.20;99.90;;;;;;5018770;28;20038;-68
2022/05/14 04:18:31;;;;;;;16.83;8.50;;;23.20;99.90;;;;;;5028485;28;20036;-69
2022/05/14 04:21:00;;;;;;;17.08;8.60;;;23.10;99.90;;;;;;5020628;28;20029;-69
2022/05/14 04:23:30;;;;;;;15.18;8.73;;;23.00;99.90;;;;;;5022508;28;20386;-69
2022/05/14 04:25:58;;;;;;;13.48;7.90;;;23.00;99.90;;;;;;5016629;28;20075;-69
2022/05/14 04:28:26;;;;;;;16.98;8.23;;;23.00;99.90;;;;;;5023714;28;20026;-69
2022/05/14 04:30:54;;;;;;;19.30;7.85;;;23.10;99.90;;;;;;5020795;28;20034;-69
2022/05/14 04:33:23;;;;;;;13.30;7.90;;;23.20;99.90;;;;;;5016085;28;20095;-69
2022/05/14 04:35:50;;;;;;;17.45;8.40;;;23.30;99.90;;;;;;5018333;28;20029;-69
2022/05/14 04:38:17;;;;;;;17.05;7.40;;;23.30;99.90;;;;;;5016245;28;20018;-69
2022/05/14 04:40:45;;;;;;;15.43;7.80;;;23.20;99.90;;;;;;5020077;28;20113;-69
2022/05/14 04:43:14;;;;;;;15.95;8.77;;;23.30;99.90;;;;;;5034336;28;20065;-69
2022/05/14 04:45:43;;;;;;;18.30;8.52;;;23.20;99.90;;;;;;5033639;28;20040;-69
2022/05/14 04:48:11;;;;;;;12.73;8.00;;;23.10;99.90;;;;;;5034811;28;20030;-69
2022/05/14 04:50:38;;;;;;;19.27;8.63;;;23.20;99.90;;;;;;5022420;28;20034;-69
2022/05/14 04:53:06;;;;;;;14.63;7.22;;;23.40;99.90;;;;;;5025910;28;20084;-69
2022/05/14 04:55:34;;;;;;;15.00;7.60;;;23.40;99.90;;;;;;5023859;28;20029;-69
2022/05/14 04:58:02;;;;;;;14.48;6.28;;;23.30;99.90;;;;;;5015993;28;20597;-69
2022/05/14 05:00:31;;;;;;;15.50;7.68;;;23.30;99.90;;;;;;5019651;28;20060;-69
2022/05/14 05:03:17;;;;;;;12.63;6.57;;;23.30;99.90;;;;;;5015718;28;20116;-69
2022/05/14 05:05:59;;;;;;;16.30;5.60;;;23.30;99.90;;;;;;5027339;28;20041;-69
2022/05/14 05:08:29;;;;;;;21.77;5.90;;;23.20;99.90;;;;;;5035536;28;20021;-69
2022/05/14 05:10:57;;;;;;;13.60;5.70;;;23.10;99.90;;;;;;5033524;28;20121;-69
2022/05/14 05:13:28;;;;;;;11.07;4.50;;;23.00;99.90;;;;;;5015258;28;20068;-68
2022/05/14 05:15:55;;;;;;;13.48;4.80;;;23.10;99.90;;;;;;5029846;28;20034;-69
2022/05/14 05:18:23;;;;;;;9.32;3.83;;;22.90;99.90;;;;;;5028590;28;20041;-69
2022/05/14 05:20:52;;;;;;;7.80;3.85;;;22.80;99.90;;;;;;5033263;28;20096;-69
2022/05/14 05:23:22;;;;;;;12.07;3.92;;;22.90;99.90;;;;;;5034935;28;20371;-69
2022/05/14 05:25:50;;;;;;;13.02;4.47;;;22.90;99.90;;;;;;5021257;28;20062;-69
2022/05/14 05:28:18;;;;;;;14.70;3.70;;;22.90;99.90;;;;;;5015250;28;20022;-69
2022/05/14 05:30:45;;;;;;;11.68;4.63;;;22.80;99.90;;;;;;5023715;28;20072;-69
2022/05/14 05:33:16;;;;;;;8.85;4.07;;;22.80;99.90;;;;;;5015249;28;20022;-69
2022/05/14 05:35:44;;;;;;;11.55;4.28;;;22.70;99.90;;;;;;5021741;28;20047;-69
2022/05/14 05:38:12;;;;;;;12.43;4.38;;;22.70;99.90;;;;;;5033276;28;20021;-69
2022/05/14 05:40:40;;;;;;;8.70;3.38;;;22.70;99.90;;;;;;5033556;28;20031;-69
2022/05/14 05:43:09;;;;;;;10.25;4.45;;;22.70;99.90;;;;;;5018209;28;20041;-69
2022/05/14 05:45:37;;;;;;;9.23;3.75;;;22.60;99.90;;;;;;5033367;28;20061;-69
2022/05/14 05:48:05;;;;;;;13.00;4.05;;;22.60;99.90;;;;;;5027188;28;20117;-69
2022/05/14 05:50:33;;;;;;;8.23;3.47;;;22.70;99.90;;;;;;5026806;28;20029;-69
2022/05/14 05:53:00;;;;;;;14.77;3.30;;;22.70;99.90;;;;;;5033314;28;20502;-69
2022/05/14 05:58:17;;;;;;;12.27;3.38;;;22.60;99.90;;;;;;5034604;28;20071;-68
2022/05/14 06:00:45;;;;;;;6.00;2.97;;;22.50;99.90;;;;;;5025376;28;20018;-69
2022/05/14 06:03:12;;;;;;;6.40;3.15;;;22.60;99.90;;;;;;5022477;28;20026;-68
2022/05/14 06:05:41;;;;;;;12.45;4.40;;;22.60;99.90;;;;;;5021276;28;20028;-69
2022/05/14 06:08:15;;;;;;;9.57;3.95;;;22.50;99.90;;;;;;5030103;28;20028;-69
2022/05/14 06:10:42;;;;;;;13.27;3.92;;;22.50;99.90;;;;;;5015336;28;20033;-69
2022/05/14 06:13:14;;;;;;;13.32;3.97;;;22.50;99.90;;;;;;5014050;28;20026;-69
2022/05/14 06:15:42;;;;;;;12.52;4.15;;;22.50;99.90;;;;;;5015301;28;20026;-69
2022/05/14 06:18:10;;;;;;;9.90;3.55;;;22.40;99.90;;;;;;5020457;28;20060;-69
2022/05/14 06:20:38;;;;;;;7.30;3.75;;;22.40;99.90;;;;;;5025131;28;20030;-69
2022/05/14 06:23:07;;;;;;;9.48;3.28;;;22.30;99.90;;;;;;5034275;28;20428;-69
2022/05/14 06:25:35;;;;;;;9.10;3.95;;;22.20;99.90;;;;;;5029160;28;20477;-69
2022/05/14 06:28:02;;;;;;;6.40;2.80;;;22.20;99.90;;;;;;5034216;28;20083;-69
2022/05/14 06:30:30;;;;;;;9.02;4.30;;;22.10;99.90;;;;;;5032752;28;20029;-69
2022/05/14 06:33:08;;;;;;;12.98;3.83;;;22.10;99.90;;;;;;5032237;28;20025;-69
2022/05/14 06:35:37;;;;;;;6.95;3.17;;;22.10;99.90;;;;;;5026112;28;20355;-69
2022/05/14 06:38:06;;;;;;;17.88;4.32;;;22.00;99.90;;;;;;5032343;28;20104;-69
2022/05/14 06:40:35;;;;;;;8.18;3.97;;;22.00;99.90;;;;;;5023492;28;20390;-69
2022/05/14 06:43:03;;;;;;;7.18;3.70;;;21.90;99.90;;;;;;5026709;28;20079;-69
2022/05/14 06:45:31;;;;;;;9.25;3.42;;;21.90;99.90;;;;;;5021416;28;20406;-69
2022/05/14 06:47:58;;;;;;;10.20;3.40;;;21.90;99.90;;;;;;5012828;28;20410;-69
2022/05/14 06:50:33;;;;;;;6.13;2.53;;;21.80;99.90;;;;;;5028954;28;20025;-68
2022/05/14 06:53:04;;;;;;;10.63;3.60;;;21.80;99.90;;;;;;5017978;28;20041;-69
2022/05/14 06:55:36;;;;;;;8.55;4.28;;;21.80;99.90;;;;;;5019563;28;20030;-69
2022/05/14 06:58:04;;;;;;;12.70;4.30;;;21.70;99.90;;;;;;5019855;28;20024;-68
2022/05/14 07:00:32;;;;;;;9.98;4.38;;;21.70;99.90;;;;;;5030132;28;20450;-68
2022/05/14 07:08:33;;;;;;;10.18;4.00;;;21.60;99.90;;;;;;5031747;28;20045;-68
2022/05/14 07:11:00;;;;;;;13.30;4.50;;;21.60;99.90;;;;;;5017033;28;20030;-68
2022/05/14 07:13:27;;;;;;;10.60;4.50;;;21.60;99.90;;;;;;5018969;28;20065;-68
2022/05/14 07:15:54;;;;;;;11.13;3.58;;;21.50;99.90;;;;;;5031705;28;20085;-68
2022/05/14 07:18:22;;;;;;;10.18;3.78;;;21.50;99.90;;;;;;5031546;28;20072;-68
2022/05/14 07:20:49;;;;;;;12.25;4.32;;;21.40;99.90;;;;;;5020598;28;20159;-69
2022/05/14 07:23:16;;;;;;;8.75;3.53;;;21.40;99.90;;;;;;5027549;28;20037;-69
2022/05/14 07:25:44;;;;;;;9.38;4.07;;;21.40;99.90;;;;;;5024375;28;20073;-68
2022/05/14 07:28:11;;;;;;;16.13;5.10;;;21.40;99.90;;;;;;5031774;28;20029;-69
2022/05/14 07:30:38;;;;;;;11.60;4.63;;;21.30;99.90;;;;;;5019599;28;20025;-68
2022/05/14 07:33:06;;;;;;;13.30;4.32;;;21.30;99.90;;;;;;5013087;28;20030;-69
2022/05/14 07:35:35;;;;;;;14.73;4.50;;;21.30;99.90;;;;;;5018428;28;20084;-68
2022/05/14 07:38:06;;;;;;;12.45;3.85;;;21.30;99.90;;;;;;5013125;28;20125;-69
2022/05/14 07:40:35;;;;;;;14.43;3.88;;;21.20;99.90;;;;;;5013649;28;20018;-68
2022/05/14 07:43:07;;;;;;;7.65;3.90;;;21.20;99.90;;;;;;5027367;28;20026;-69
2022/05/14 07:45:56;;;;;;;11.80;4.65;;;21.20;99.90;;;;;;5020887;28;20040;-68
2022/05/14 07:48:28;;;;;;;11.32;4.20;;;21.10;99.90;;;;;;5012967;28;20032;-68
2022/05/14 07:50:55;;;;;;;13.35;3.60;;;21.10;99.90;;;;;;5027492;28;20032;-68
2022/05/14 07:53:22;;;;;;;13.10;3.95;;;21.10;99.90;;;;;;5018613;28;20702;-68
2022/05/14 07:55:50;;;;;;;21.58;3.88;;;21.10;99.90;;;;;;5021443;28;20056;-68
2022/05/14 07:58:17;;;;;;;8.90;3.45;;;21.10;99.90;;;;;;5032455;28;20025;-68
2022/05/14 08:00:44;;;;;;;13.18;4.38;;;21.10;99.90;;;;;;5018496;28;20057;-68
2022/05/14 08:03:11;;;;;;;8.20;4.18;;;21.10;99.90;;;;;;5012470;28;20102;-69
2022/05/14 08:05:39;;;;;;;14.80;4.55;;;21.00;99.90;;;;;;5013411;28;20068;-68
2022/05/14 08:08:06;;;;;;;16.25;4.57;;;21.10;99.90;;;;;;5020032;28;20037;-69
2022/05/14 08:10:34;;;;;;;14.00;4.38;;;21.00;99.90;;;;;;5027865;28;20034;-68
2022/05/14 08:13:01;;;;;;;19.00;3.97;;;21.00;99.90;;;;;;5025473;28;20367;-68
2022/05/14 08:15:29;;;;;;;17.70;3.88;;;21.00;99.90;;;;;;5030708;28;20525;-68
2022/05/14 08:17:56;;;;;;;14.80;3.97;;;21.00;99.90;;;;;;5032290;28;20072;-68
2022/05/14 08:20:25;;;;;;;13.57;3.65;;;20.90;99.90;;;;;;5021657;28;20394;-68
2022/05/14 08:25:37;;;;;;;14.60;4.70;;;20.90;99.90;;;;;;5020116;28;20489;-68
2022/05/14 08:28:05;;;;;;;12.73;4.28;;;20.90;99.90;;;;;;5017993;28;20040;-68
2022/05/14 08:30:34;;;;;;;8.18;3.55;;;21.00;99.90;;;;;;5020429;28;20092;-68
2022/05/14 08:33:04;;;;;;;12.18;4.25;;;20.90;99.90;;;;;;5012553;28;20049;-68
2022/05/14 08:35:32;;;;;;;14.55;4.05;;;21.00;99.90;;;;;;5016131;28;20048;-68
2022/05/14 08:37:59;;;;;;;14.02;2.92;;;21.00;99.90;;;;;;5030893;28;20032;-68
2022/05/14 08:40:30;;;;;;;13.82;4.18;;;21.00;99.90;;;;;;5028530;28;20025;-68
2022/05/14 08:43:04;;;;;;;12.02;3.80;;;21.00;99.90;;;;;;5034052;28;20029;-68
2022/05/14 08:45:36;;;;;;;17.08;4.90;;;21.00;99.90;;;;;;5030333;28;20034;-68
2022/05/14 08:48:10;;;;;;;19.15;4.28;;;21.00;99.90;;;;;;5035821;28;20029;-68
2022/05/14 08:50:39;;;;;;;10.20;4.35;;;20.90;99.90;;;;;;5022684;28;20033;-68
2022/05/14 08:53:11;;;;;;;10.77;4.05;;;21.00;99.90;;;;;;5027349;28;20046;-69
2022/05/14 08:55:42;;;;;;;13.00;4.82;;;21.00;99.90;;;;;;5023650;28;20052;-68
2022/05/14 08:58:41;;;;;;;12.40;4.15;;;20.90;99.90;;;;;;5021994;28;20026;-68
2022/05/14 09:01:10;;;;;;;12.95;4.78;;;20.90;99.90;;;;;;5027090;28;20036;-69
2022/05/14 09:03:37;;;;;;;13.27;4.95;;;20.90;99.90;;;;;;5025501;28;20367;-69
2022/05/14 09:06:04;;;;;;;15.48;4.65;;;21.00;99.90;;;;;;5031530;28;20175;-69
2022/05/14 09:08:32;;;;;;;10.30;4.40;;;20.90;99.90;;;;;;5022166;28;20046;-69
2022/05/14 09:11:18;;;;;;;20.25;5.22;;;20.90;99.90;;;;;;5032700;28;20428;-68
2022/05/14 09:13:49;;;;;;;13.18;4.13;;;20.90;99.90;;;;;;5033660;28;20525;-69
2022/05/14 09:16:33;;;;;;;13.98;5.10;;;20.90;99.90;;;;;;5029735;28;20436;-69
2022/05/14 09:19:11;;;;;;;15.67;4.57;;;20.80;99.90;;;;;;5015008;28;20017;-69
2022/05/14 09:21:48;;;;;;;15.52;4.68;;;20.80;99.90;;;;;;5017314;28;20017;-69
2022/05/14 09:24:17;;;;;;;14.38;4.30;;;20.80;99.90;;;;;;5015743;28;20060;-69
2022/05/14 09:26:45;;;;;;;13.25;4.72;;;20.80;99.90;;;;;;5025652;28;20040;-69
2022/05/14 09:29:32;;;;;;;17.42;4.32;;;20.80;99.90;;;;;;5025066;28;20157;-69
2022/05/14 09:32:11;;;;;;;9.80;4.35;;;20.70;99.90;;;;;;5021903;28;20025;-69
2022/05/14 09:34:38;;;;;;;16.45;5.47;;;20.80;99.90;;;;;;5018058;28;20062;-69
2022/05/14 09:37:09;;;;;;;12.18;4.53;;;20.80;99.90;;;;;;5014923;28;20022;-69
2022/05/14 09:39:38;;;;;;;12.80;4.65;;;20.70;99.90;;;;;;5023838;28;20029;-69
2022/05/14 09:42:06;;;;;;;7.95;3.38;;;20.70;99.90;;;;;;5019070;28;20026;-68
2022/05/14 09:44:46;;;;;;;7.47;3.53;;;20.70;99.90;;;;;;5014662;28;20030;-69
2022/05/14 09:47:24;;;;;;;9.00;3.65;;;20.70;99.90;;;;;;5018045;28;20018;-69
2022/05/14 09:50:00;;;;;;;10.70;3.85;;;20.70;99.90;;;;;;5030396;28;20029;-68
2022/05/14 09:52:30;;;;;;;9.18;4.15;;;20.70;99.90;;;;;;5028903;28;20056;-69
2022/05/14 09:54:59;;;;;;;11.90;5.00;;;20.70;99.90;;;;;;5029728;28;20022;-69
2022/05/14 09:57:48;;;;;;;12.32;4.72;;;20.70;99.90;;;;;;5017381;28;20013;-69
2022/05/14 10:00:26;;;;;;;11.95;4.93;;;20.70;99.90;;;;;;5017224;28;20397;-69
2022/05/14 10:03:14;;;;;;;8.10;3.92;;;20.70;99.90;;;;;;5017098;28;20033;-69
2022/05/14 10:06:25;;;;;;;14.77;4.35;;;20.70;99.90;;;;;;5014294;28;20038;-68
2022/05/14 10:08:58;;;;;;;8.43;3.83;;;20.60;99.90;;;;;;5015343;28;20041;-69
2022/05/14 10:11:42;;;;;;;9.18;4.22;;;20.60;99.90;;;;;;5024031;28;20427;-70
2022/05/14 10:14:28;;;;;;;10.77;4.47;;;20.60;99.90;;;;;;5019407;28;20090;-69
2022/05/14 10:17:19;;;;;;;8.60;4.18;;;20.60;99.90;;;;;;5022666;28;20025;-69
2022/05/14 10:20:01;;;;;;;8.65;3.95;;;20.60;99.90;;;;;;5029016;28;20022;-70
2022/05/14 10:29:08;;;;;;;8.43;4.80;;;20.50;99.90;;;;;;5013292;28;20049;-70
2022/05/14 10:31:59;;;;;;;9.68;4.18;;;20.50;99.90;;;;;;5021984;28;20022;-70
2022/05/14 10:34:47;;;;;;;6.95;4.07;;;20.50;99.90;;;;;;5031599;28;20029;-70
2022/05/14 10:37:39;;;;;;;12.90;4.47;;;20.50;99.90;;;;;;5019465;28;20485;-70
2022/05/14 10:40:10;;;;;;;12.45;5.05;;;20.60;99.90;;;;;;5024901;28;20114;-69
2022/05/14 10:43:19;;;;;;;10.18;3.92;;;20.60;99.90;;;;;;5027554;28;20026;-70
2022/05/14 10:45:48;;;;;;;7.20;4.43;;;20.50;99.90;;;;;;5024293;28;20041;-70
2022/05/14 10:48:45;;;;;;;12.82;4.53;;;20.60;99.90;;;;;;5020783;28;20033;-69
2022/05/14 10:51:24;;;;;;;8.73;3.97;;;20.50;99.90;;;;;;5025812;28;20045;-70
2022/05/14 10:53:52;;;;;;;14.05;4.90;;;20.50;99.90;;;;;;5027394;28;20033;-70
2022/05/14 10:56:50;;;;;;;13.07;4.60;;;20.40;99.90;;;;;;5015398;28;20021;-69
2022/05/14 10:59:33;;;;;;;8.07;4.82;;;20.50;99.90;;;;;;5013422;28;20030;-69
2022/05/14 11:02:05;;;;;;;13.95;5.55;;;20.40;99.90;;;;;;5021612;28;20029;-70
2022/05/14 11:04:36;;;;;;;10.15;4.40;;;20.30;99.90;;;;;;5020803;28;20029;-70
2022/05/14 11:07:15;;;;;;;10.00;4.47;;;20.30;99.90;;;;;;5023042;28;20524;-70
2022/05/14 11:09:47;;;;;;;9.13;4.43;;;20.30;99.90;;;;;;5019547;28;20033;-69
2022/05/14 11:12:20;;;;;;;9.70;4.07;;;20.30;99.90;;;;;;5029038;28;20026;-69
2022/05/14 11:14:53;;;;;;;11.33;4.33;;;20.30;99.90;;;;;;5024785;28;20022;-69
2022/05/14 11:17:23;;;;;;;9.82;4.45;;;20.30;99.90;;;;;;5013895;28;20017;-69
2022/05/14 11:19:52;;;;;;;7.25;4.43;;;20.30;99.90;;;;;;5013085;28;20494;-69
2022/05/14 11:22:25;;;;;;;8.45;4.18;;;20.30;99.90;;;;;;5013987;28;20104;-69
2022/05/14 11:24:53;;;;;;;6.70;4.13;;;20.20;99.90;;;;;;5013528;28;20050;-69
2022/05/14 11:27:37;;;;;;;9.52;4.40;;;20.20;99.90;;;;;;5023823;28;20437;-69
2022/05/14 11:30:12;;;;;;;9.00;4.07;;;20.20;99.90;;;;;;5021177;28;20557;-68
2022/05/14 11:32:59;;;;;;;11.02;3.97;;;20.20;99.90;;;;;;5024361;28;20036;-69
2022/05/14 11:35:48;;;;;;;6.00;3.40;;;20.10;99.90;;;;;;5025703;28;20052;-69
2022/05/14 11:38:18;;;;;;;14.68;4.63;;;20.10;99.90;;;;;;5029357;28;20068;-69
2022/05/14 11:41:05;;;;;;;9.68;4.10;;;20.10;99.90;;;;;;5028015;28;20029;-69
2022/05/14 11:43:44;;;;;;;7.95;3.28;;;20.10;99.90;;;;;;5019907;28;20097;-68
2022/05/14 11:46:29;;;;;;;12.10;4.10;;;20.10;99.90;;;;;;5025052;28;20044;-68
2022/05/14 11:49:20;;;;;;;4.85;3.35;;;20.10;99.90;;;;;;5032169;28;20103;-70
2022/05/14 11:52:08;;;;;;;6.13;4.38;;;20.10;99.90;;;;;;5023749;28;20046;-69
2022/05/14 11:55:09;;;;;;;8.68;4.95;;;20.00;99.90;;;;;;5019044;28;20116;-69
2022/05/14 11:57:57;;;;;;;7.80;4.55;;;20.10;99.90;;;;;;5015744;28;20108;-68
2022/05/14 12:00:32;;;;;;;7.20;4.43;;;20.10;99.90;;;;;;5021727;28;20430;-69
2022/05/14 12:03:30;;;;;;;9.00;4.47;;;20.10;99.90;;;;;;5021775;28;20025;-69
2022/05/14 12:06:01;;;;;;;10.02;4.25;;;20.10;99.90;;;;;;5022400;28;20048;-70
2022/05/14 12:08:54;;;;;;;11.38;4.72;;;20.10;99.90;;;;;;5027066;28;20028;-70
2022/05/14 12:11:56;;;;;;;6.60;4.13;;;20.10;99.90;;;;;;5024235;28;20040;-67
2022/05/14 12:14:35;;;;;;;6.80;4.30;;;20.00;99.90;;;;;;5022370;28;20525;-67
2022/05/14 12:17:08;;;;;;;9.02;3.90;;;20.10;99.90;;;;;;5021799;28;20040;-67
2022/05/14 12:19:41;;;;;;;7.07;4.00;;;20.00;99.90;;;;;;5031941;28;20018;-67
2022/05/14 12:22:21;;;;;;;11.73;4.47;;;20.10;99.90;;;;;;5015862;28;20034;-67
2022/05/14 12:25:03;;;;;;;8.95;4.50;;;20.00;99.90;;;;;;5017104;28;20547;-70
2022/05/14 12:27:33;;;;;;;7.82;4.50;;;20.00;99.90;;;;;;5031964;28;20033;-70
2022/05/14 12:30:02;;;;;;;12.25;5.20;;;20.00;99.90;;;;;;5027970;28;20029;-69
2022/05/14 12:35:24;;;;;;;14.40;7.22;;;20.00;99.90;;;;;;5030685;28;20048;-69
2022/05/14 12:37:57;;;;;;;12.95;7.15;;;20.00;99.90;;;;;;5021405;28;20021;-67
2022/05/14 12:40:35;;;;;;;10.68;5.75;;;20.00;99.90;;;;;;5032455;28;20529;-67
2022/05/14 12:43:06;;;;;;;8.15;5.15;;;20.00;99.90;;;;;;5022909;28;20210;-67
2022/05/14 12:45:45;;;;;;;9.35;5.25;;;20.00;99.90;;;;;;5030639;28;20036;-67
2022/05/14 12:48:14;;;;;;;10.50;5.22;;;20.00;99.90;;;;;;5025480;28;20056;-67
2022/05/14 12:50:53;;;;;;;14.75;6.10;;;19.90;99.90;;;;;;5034218;28;20018;-67
2022/05/14 12:53:21;;;;;;;12.90;5.30;;;19.90;99.90;;;;;;5015232;28;20096;-67
2022/05/14 12:55:51;;;;;;;10.40;5.95;;;19.90;99.90;;;;;;5016531;28;20022;-67
2022/05/14 12:58:19;;;;;;;14.85;5.40;;;19.90;99.90;;;;;;5015022;28;20068;-67
2022/05/14 13:00:50;;;;;;;12.07;5.72;;;19.90;99.90;;;;;;5024581;28;20153;-67
2022/05/14 13:03:34;;;;;;;9.27;5.40;;;20.00;99.90;;;;;;5028816;28;20091;-67
2022/05/14 13:06:13;;;;;;;11.00;5.90;;;20.00;99.90;;;;;;5028119;28;20034;-67
2022/05/14 13:08:48;;;;;;;15.73;6.35;;;19.90;99.90;;;;;;5018564;28;20030;-67
2022/05/14 13:11:22;;;;;;;11.15;6.05;;;19.90;99.90;;;;;;5026063;28;20030;-67
2022/05/14 13:13:51;;;;;;;;;;;19.90;99.90;;;;;;5031043;28;20021;-67
2022/05/14 13:16:22;;;;;;;9.98;6.32;;;19.90;99.90;;;;;;5027948;28;20366;-67
2022/05/14 13:19:00;;;;;;;17.60;7.00;;;19.90;99.90;;;;;;5015478;28;20025;-67
2022/05/14 13:21:35;;;;;;;12.88;6.10;;;20.00;99.90;;;;;;5015679;28;20502;-67
2022/05/14 13:24:06;;;;;;;10.75;6.03;;;19.90;99.90;;;;;;5031299;28;21296;-68
2022/05/14 13:26:41;;;;;;;11.18;7.78;;;19.90;99.90;;;;;;5026784;28;20025;-68
2022/05/14 13:29:26;;;;;;;18.73;11.27;;;19.90;99.90;;;;;;5023249;28;20026;-68
2022/05/14 13:32:09;;;;;;;13.23;8.55;;;19.90;99.90;;;;;;5027932;28;20033;-68
2022/05/14 13:37:37;;;;;;;15.45;8.02;;;19.80;99.90;;;;;;5024367;28;20060;-67